createdAt,value
2018-07-17T00:00:30.722Z,8.75
2018-07-17T00:02:59.808Z,8.38
2018-07-17T00:05:28.500Z,9.68
2018-07-17T00:07:57.192Z,9.05
2018-07-17T00:10:26.118Z,7.58
2018-07-17T00:12:55.098Z,7.70
2018-07-17T00:15:23.766Z,7.40
2018-07-17T00:17:53.124Z,7.70
2018-07-17T00:20:22.687Z,6.67
2018-07-17T00:22:51.787Z,6.97
2018-07-17T00:25:21.312Z,6.78
2018-07-17T00:27:50.191Z,6.17
2018-07-17T00:30:18.968Z,6.75
2018-07-17T00:32:48.294Z,6.45
2018-07-17T00:35:17.547Z,6.70
2018-07-17T00:37:46.461Z,6.70
2018-07-17T00:40:15.497Z,6.80
2018-07-17T00:42:44.254Z,7.20
2018-07-17T00:45:13.158Z,6.67
2018-07-17T00:47:43.605Z,6.60
2018-07-17T00:50:13.149Z,7.08
2018-07-17T00:52:42.151Z,7.25
2018-07-17T00:55:11.197Z,6.83
2018-07-17T00:57:40.425Z,8.20
2018-07-17T01:00:09.353Z,7.12
2018-07-17T01:02:43.554Z,7.15
2018-07-17T01:05:17.409Z,7.62
2018-07-17T01:07:51.927Z,7.37
2018-07-17T01:10:25.839Z,6.75
2018-07-17T01:12:54.331Z,6.40
2018-07-17T01:15:32.557Z,7.35
2018-07-17T01:18:02.025Z,7.75
2018-07-17T01:20:31.151Z,7.37
2018-07-17T01:23:00.714Z,7.83
2018-07-17T01:25:30.203Z,7.45
2018-07-17T01:27:58.918Z,7.33
2018-07-17T01:30:27.938Z,7.60
2018-07-17T01:32:57.120Z,7.37
2018-07-17T01:35:25.740Z,7.08
2018-07-17T01:37:54.683Z,7.37
2018-07-17T01:40:24.198Z,8.23
2018-07-17T01:42:53.218Z,8.28
2018-07-17T01:45:22.086Z,10.58
2018-07-17T01:47:51.420Z,8.85
2018-07-17T01:50:20.516Z,8.63
2018-07-17T01:52:49.381Z,8.13
2018-07-17T01:55:18.306Z,8.53
2018-07-17T01:57:47.437Z,8.78
2018-07-17T02:00:16.250Z,8.55
2018-07-17T02:02:45.480Z,9.20
2018-07-17T02:05:14.351Z,9.23
2018-07-17T02:07:43.678Z,9.68
2018-07-17T02:10:12.579Z,13.38
2018-07-17T02:12:42.335Z,19.37
2018-07-17T02:15:11.434Z,20.48
2018-07-17T02:17:40.803Z,14.78
2018-07-17T02:20:09.835Z,9.10
2018-07-17T02:22:38.818Z,21.23
2018-07-17T02:25:07.952Z,35.85
2018-07-17T02:27:37.030Z,19.05
2018-07-17T02:30:06.321Z,9.03
2018-07-17T02:32:35.500Z,9.08
2018-07-17T02:35:04.959Z,9.18
2018-07-17T02:37:33.935Z,9.68
2018-07-17T02:40:02.966Z,9.10
2018-07-17T02:42:32.043Z,14.38
2018-07-17T02:45:01.130Z,10.05
2018-07-17T02:47:30.641Z,12.95
2018-07-17T02:49:59.639Z,9.85
2018-07-17T02:52:28.527Z,10.90
2018-07-17T02:54:57.753Z,10.75
2018-07-17T02:57:26.990Z,13.28
2018-07-17T02:59:56.420Z,21.65
2018-07-17T03:02:25.784Z,10.68
2018-07-17T03:04:54.744Z,17.00
2018-07-17T03:07:23.374Z,10.13
2018-07-17T03:09:52.815Z,11.70
2018-07-17T03:12:21.528Z,10.95
2018-07-17T03:14:50.217Z,10.53
2018-07-17T03:17:19.618Z,10.95
2018-07-17T03:19:48.689Z,10.90
2018-07-17T03:22:17.798Z,10.90
2018-07-17T03:24:47.745Z,12.18
2018-07-17T03:27:16.903Z,14.43
2018-07-17T03:29:45.962Z,10.32
2018-07-17T03:32:15.598Z,23.07
2018-07-17T03:34:44.373Z,22.90
2018-07-17T03:37:13.299Z,9.38
2018-07-17T03:39:42.587Z,8.40
2018-07-17T03:42:11.349Z,8.80
2018-07-17T03:44:40.591Z,8.93
2018-07-17T03:47:10.328Z,8.23
2018-07-17T03:49:39.149Z,7.28
2018-07-17T03:52:08.426Z,8.30
2018-07-17T03:54:37.488Z,8.73
2018-07-17T03:57:06.436Z,8.00
2018-07-17T03:59:35.099Z,9.10
2018-07-17T04:02:03.897Z,11.65
2018-07-17T04:04:32.781Z,7.30
2018-07-17T04:07:02.987Z,22.98
2018-07-17T04:09:32.064Z,18.37
2018-07-17T04:12:01.242Z,8.60
2018-07-17T04:14:30.094Z,10.58
2018-07-17T04:16:59.543Z,8.28
2018-07-17T04:19:33.201Z,8.03
2018-07-17T04:22:06.941Z,9.53
2018-07-17T04:24:36.319Z,20.12
2018-07-17T04:27:05.312Z,15.65
2018-07-17T04:29:35.111Z,11.73
2018-07-17T04:32:03.831Z,17.45
2018-07-17T04:34:32.806Z,14.70
2018-07-17T04:37:01.748Z,12.90
2018-07-17T04:39:30.856Z,8.98
2018-07-17T04:41:59.779Z,10.03
2018-07-17T04:44:28.600Z,8.30
2018-07-17T04:46:57.459Z,16.05
2018-07-17T04:49:26.479Z,10.18
2018-07-17T04:51:55.587Z,16.42
2018-07-17T04:57:08.484Z,9.33
2018-07-17T04:59:37.800Z,8.63
2018-07-17T05:02:08.736Z,9.98
2018-07-17T05:04:38.783Z,11.28
2018-07-17T05:07:07.886Z,8.95
2018-07-17T05:09:36.955Z,12.65
2018-07-17T05:12:06.128Z,11.50
2018-07-17T05:14:34.855Z,16.23
2018-07-17T05:17:03.749Z,9.55
2018-07-17T05:19:33.170Z,7.58
2018-07-17T05:22:02.055Z,12.63
2018-07-17T05:24:30.816Z,7.47
2018-07-17T05:26:59.915Z,16.23
2018-07-17T05:29:28.701Z,10.63
2018-07-17T05:31:57.887Z,28.23
2018-07-17T05:34:26.911Z,12.80
2018-07-17T05:36:56.199Z,8.48
2018-07-17T05:39:25.494Z,12.73
2018-07-17T05:41:54.551Z,11.85
2018-07-17T05:44:23.896Z,11.38
2018-07-17T05:46:52.691Z,13.70
2018-07-17T05:49:22.370Z,9.90
2018-07-17T05:51:52.669Z,9.85
2018-07-17T05:54:21.709Z,7.85
2018-07-17T05:56:51.636Z,9.18
2018-07-17T05:59:21.139Z,8.78
2018-07-17T06:01:50.318Z,9.78
2018-07-17T06:04:19.314Z,14.43
2018-07-17T06:06:49.019Z,12.03
2018-07-17T06:09:18.114Z,13.35
2018-07-17T06:11:46.919Z,10.38
2018-07-17T06:14:16.631Z,9.30
2018-07-17T06:16:45.517Z,7.95
2018-07-17T06:19:14.516Z,9.35
2018-07-17T06:21:43.955Z,11.38
2018-07-17T06:24:13.210Z,10.58
2018-07-17T06:26:42.107Z,10.70
2018-07-17T06:29:11.003Z,9.40
2018-07-17T06:31:39.796Z,10.95
2018-07-17T06:34:08.490Z,8.68
2018-07-17T06:36:37.600Z,9.75
2018-07-17T06:39:07.983Z,14.98
2018-07-17T06:41:36.859Z,9.80
2018-07-17T06:44:06.732Z,16.25
2018-07-17T06:46:35.907Z,11.48
2018-07-17T06:49:05.207Z,15.20
2018-07-17T06:51:34.844Z,16.40
2018-07-17T06:54:03.703Z,12.20
2018-07-17T06:56:32.640Z,15.10
2018-07-17T06:59:01.631Z,15.83
2018-07-17T07:01:30.696Z,24.30
2018-07-17T07:03:59.794Z,15.15
2018-07-17T07:06:28.715Z,13.78
2018-07-17T07:08:59.030Z,21.33
2018-07-17T07:11:28.415Z,13.68
2018-07-17T07:13:58.632Z,14.23
2018-07-17T07:16:28.780Z,22.62
2018-07-17T07:18:57.758Z,15.05
2018-07-17T07:21:26.699Z,19.02
2018-07-17T07:23:55.583Z,12.93
2018-07-17T07:26:25.045Z,14.65
2018-07-17T07:28:55.593Z,11.05
2018-07-17T07:31:25.802Z,15.38
2018-07-17T07:33:55.739Z,17.82
2018-07-17T07:36:24.393Z,15.85
2018-07-17T07:38:54.203Z,18.17
2018-07-17T07:41:23.203Z,13.15
2018-07-17T07:43:53.044Z,15.60
2018-07-17T07:46:22.364Z,12.50
2018-07-17T07:48:51.687Z,16.35
2018-07-17T07:51:21.052Z,25.88
2018-07-17T07:53:50.126Z,14.15
2018-07-17T07:56:19.788Z,19.20
2018-07-17T07:58:48.807Z,19.02
2018-07-17T08:01:17.488Z,19.17
2018-07-17T08:03:48.658Z,19.00
2018-07-17T08:06:18.411Z,17.50
2018-07-17T08:08:49.260Z,15.43
2018-07-17T08:11:18.476Z,17.98
2018-07-17T08:13:47.303Z,21.50
2018-07-17T08:16:16.551Z,17.95
2018-07-17T08:18:46.295Z,14.18
2018-07-17T08:21:15.210Z,9.03
2018-07-17T08:23:44.179Z,10.55
2018-07-17T08:26:13.340Z,10.78
2018-07-17T08:28:42.051Z,17.95
2018-07-17T08:31:10.866Z,14.10
2018-07-17T08:33:40.212Z,14.38
2018-07-17T08:36:09.770Z,14.15
2018-07-17T08:38:38.880Z,14.00
2018-07-17T08:41:09.339Z,13.20
2018-07-17T08:43:38.260Z,17.87
2018-07-17T08:46:07.718Z,12.30
2018-07-17T08:48:36.535Z,12.93
2018-07-17T08:51:05.527Z,10.80
2018-07-17T08:53:34.673Z,10.00
2018-07-17T08:56:04.272Z,8.35
2018-07-17T08:58:33.106Z,11.08
2018-07-17T09:01:02.194Z,8.53
2018-07-17T09:03:31.604Z,8.33
2018-07-17T09:06:00.669Z,7.42
2018-07-17T09:08:29.513Z,8.85
2018-07-17T09:10:59.002Z,7.80
2018-07-17T09:13:27.989Z,7.20
2018-07-17T09:15:57.079Z,8.78
2018-07-17T09:18:26.615Z,7.17
2018-07-17T09:20:55.586Z,6.55
2018-07-17T09:23:24.577Z,7.78
2018-07-17T09:25:53.876Z,5.78
2018-07-17T09:28:22.935Z,6.58
2018-07-17T09:30:57.103Z,8.20
2018-07-17T09:33:25.970Z,6.17
2018-07-17T09:35:54.836Z,8.08
2018-07-17T09:38:24.276Z,10.18
2018-07-17T09:40:53.362Z,9.73
2018-07-17T09:43:22.242Z,11.28
2018-07-17T09:45:52.669Z,9.28
2018-07-17T09:48:21.526Z,7.37
2018-07-17T09:50:50.427Z,8.38
2018-07-17T09:53:19.892Z,7.72
2018-07-17T09:55:48.747Z,8.38
2018-07-17T09:58:17.541Z,8.53
2018-07-17T10:00:52.284Z,8.50
2018-07-17T10:03:21.478Z,7.47
2018-07-17T10:05:50.895Z,8.23
2018-07-17T10:08:20.095Z,8.18
2018-07-17T10:10:48.984Z,7.83
2018-07-17T10:13:18.063Z,7.15
2018-07-17T10:15:47.386Z,6.72
2018-07-17T10:18:16.268Z,6.65
2018-07-17T10:20:45.339Z,5.72
2018-07-17T10:23:14.557Z,7.47
2018-07-17T10:25:43.651Z,8.88
2018-07-17T10:28:12.804Z,8.90
2018-07-17T10:30:43.102Z,9.55
2018-07-17T10:33:12.088Z,9.93
2018-07-17T10:35:41.257Z,8.53
2018-07-17T10:38:10.652Z,6.28
2018-07-17T10:40:39.798Z,6.55
2018-07-17T10:43:09.177Z,9.08
2018-07-17T10:45:38.999Z,5.05
2018-07-17T10:48:08.145Z,8.40
2018-07-17T10:50:36.979Z,7.03
2018-07-17T10:53:06.328Z,7.35
2018-07-17T10:55:35.184Z,7.83
2018-07-17T10:58:04.338Z,4.00
2018-07-17T11:00:33.523Z,0.82
2018-07-17T11:03:02.369Z,2.22
2018-07-17T11:05:31.566Z,3.70
2018-07-17T11:08:00.615Z,2.87
2018-07-17T11:10:29.438Z,1.75
2018-07-17T11:12:58.612Z,0.50
2018-07-17T11:15:27.663Z,1.12
2018-07-17T11:17:56.687Z,2.05
2018-07-17T11:20:25.513Z,2.33
2018-07-17T11:22:54.682Z,0.95
2018-07-17T11:25:23.591Z,0.60
2018-07-17T11:27:52.572Z,1.22
2018-07-17T11:30:21.598Z,2.30
2018-07-17T11:32:50.914Z,4.05
2018-07-17T11:35:19.906Z,1.10
2018-07-17T11:37:48.883Z,2.45
2018-07-17T11:40:17.675Z,1.05
2018-07-17T11:42:46.664Z,4.65
2018-07-17T11:45:15.916Z,0.82
2018-07-17T11:47:45.524Z,5.10
2018-07-17T11:50:14.697Z,4.50
2018-07-17T11:52:43.883Z,1.65
2018-07-17T11:55:12.979Z,2.67
2018-07-17T11:57:41.663Z,1.20
2018-07-17T12:00:10.774Z,3.65
2018-07-17T12:02:39.722Z,4.30
2018-07-17T12:05:08.927Z,3.42
2018-07-17T12:07:38.530Z,10.45
2018-07-17T12:10:07.446Z,5.15
2018-07-17T12:12:36.472Z,5.30
2018-07-17T12:15:05.774Z,4.47
2018-07-17T12:17:34.903Z,5.78
2018-07-17T12:20:04.223Z,8.58
2018-07-17T12:22:33.359Z,2.15
2018-07-17T12:25:02.408Z,4.92
2018-07-17T12:27:31.668Z,5.17
2018-07-17T12:30:01.120Z,4.40
2018-07-17T12:32:29.920Z,3.27
2018-07-17T12:34:58.904Z,3.87
2018-07-17T12:37:28.760Z,4.87
2018-07-17T12:39:57.741Z,5.17
2018-07-17T12:42:26.839Z,3.80
2018-07-17T12:44:56.034Z,12.53
2018-07-17T12:47:24.939Z,3.02
2018-07-17T12:49:53.954Z,3.12
2018-07-17T12:52:23.382Z,2.33
2018-07-17T12:54:52.502Z,3.22
2018-07-17T12:57:21.507Z,5.15
2018-07-17T12:59:50.631Z,3.92
2018-07-17T13:02:20.105Z,3.75
2018-07-17T13:04:48.880Z,3.33
2018-07-17T13:07:18.026Z,5.00
2018-07-17T13:09:47.123Z,3.67
2018-07-17T13:12:16.416Z,4.03
2018-07-17T13:14:45.846Z,3.52
2018-07-17T13:17:15.011Z,1.10
2018-07-17T13:19:44.130Z,3.72
2018-07-17T13:22:13.223Z,3.58
2018-07-17T13:24:42.354Z,3.33
2018-07-17T13:27:11.418Z,1.85
2018-07-17T13:29:40.437Z,1.70
2018-07-17T13:32:09.390Z,5.35
2018-07-17T13:34:39.246Z,4.83
2018-07-17T13:37:08.546Z,3.60
2018-07-17T13:39:37.193Z,2.60
2018-07-17T13:42:06.703Z,1.92
2018-07-17T13:44:36.221Z,2.37
2018-07-17T13:47:05.197Z,4.45
2018-07-17T13:49:34.910Z,6.08
2018-07-17T13:52:04.422Z,3.80
2018-07-17T13:54:33.919Z,4.95
2018-07-17T13:57:03.340Z,3.87
2018-07-17T13:59:33.444Z,2.02
2018-07-17T14:02:02.612Z,3.12
2018-07-17T14:04:32.174Z,4.05
2018-07-17T14:07:00.961Z,5.40
2018-07-17T14:09:29.923Z,2.12
2018-07-17T14:11:59.410Z,3.98
2018-07-17T14:14:28.223Z,2.00
2018-07-17T14:16:57.335Z,2.35
2018-07-17T14:19:27.043Z,1.65
2018-07-17T14:21:56.501Z,5.80
2018-07-17T14:24:26.416Z,3.85
2018-07-17T14:26:55.535Z,7.72
2018-07-17T14:29:24.474Z,6.67
2018-07-17T14:31:53.286Z,3.25
2018-07-17T14:34:22.793Z,2.55
2018-07-17T14:36:51.700Z,5.50
2018-07-17T14:39:21.205Z,4.42
2018-07-17T14:41:50.304Z,3.33
2018-07-17T14:44:19.293Z,4.25
2018-07-17T14:46:48.696Z,4.30
2018-07-17T14:49:17.811Z,3.85
2018-07-17T14:51:46.777Z,3.87
2018-07-17T14:54:15.718Z,0.30
2018-07-17T14:56:44.498Z,1.30
2018-07-17T14:59:13.386Z,2.95
2018-07-17T15:01:43.156Z,1.10
2018-07-17T15:04:12.603Z,0.42
2018-07-17T15:06:42.247Z,1.12
2018-07-17T15:09:10.977Z,5.58
2018-07-17T15:11:40.008Z,0.40
2018-07-17T15:14:08.954Z,0.50
2018-07-17T15:16:38.025Z,2.55
2018-07-17T15:19:07.222Z,2.65
2018-07-17T15:21:36.376Z,2.45
2018-07-17T15:24:05.644Z,4.37
2018-07-17T15:26:34.863Z,1.57
2018-07-17T15:29:03.858Z,3.17
2018-07-17T15:31:33.050Z,4.10
2018-07-17T15:34:02.483Z,1.95
2018-07-17T15:36:31.456Z,0.72
2018-07-17T15:39:00.453Z,2.67
2018-07-17T15:41:29.803Z,3.42
2018-07-17T15:43:58.869Z,0.62
2018-07-17T15:46:28.049Z,0.72
2018-07-17T15:48:57.582Z,1.47
2018-07-17T15:51:26.434Z,6.78
2018-07-17T15:53:56.060Z,0.95
2018-07-17T15:56:25.471Z,5.97
2018-07-17T15:58:54.344Z,9.75
2018-07-17T16:01:23.342Z,3.65
2018-07-17T16:03:52.491Z,2.98
2018-07-17T16:06:21.574Z,0.70
2018-07-17T16:08:50.327Z,2.35
2018-07-17T16:11:19.652Z,2.02
2018-07-17T16:13:49.521Z,4.20
2018-07-17T16:16:19.190Z,3.20
2018-07-17T16:18:48.135Z,4.20
2018-07-17T16:21:18.241Z,1.62
2018-07-17T16:23:47.064Z,5.62
2018-07-17T16:26:16.055Z,1.37
2018-07-17T16:28:45.623Z,6.80
2018-07-17T16:31:14.526Z,1.57
2018-07-17T16:33:43.726Z,5.97
2018-07-17T16:36:12.803Z,2.25
2018-07-17T16:38:41.790Z,2.37
2018-07-17T16:41:10.926Z,0.90
2018-07-17T16:43:39.975Z,1.40
2018-07-17T16:46:09.568Z,3.08
2018-07-17T16:48:38.693Z,3.40
2018-07-17T16:51:08.163Z,2.35
2018-07-17T16:53:37.556Z,1.10
2018-07-17T16:56:07.581Z,1.37
2018-07-17T16:58:36.800Z,1.85
2018-07-17T17:01:07.089Z,0.70
2018-07-17T17:03:36.771Z,4.87
2018-07-17T17:06:05.673Z,3.02
2018-07-17T17:08:34.797Z,1.60
2018-07-17T17:11:03.915Z,2.00
2018-07-17T17:13:33.291Z,1.15
2018-07-17T17:16:02.577Z,2.42
2018-07-17T17:18:32.206Z,2.92
2018-07-17T17:21:01.462Z,4.10
2018-07-17T17:23:30.605Z,3.90
2018-07-17T17:25:59.591Z,6.33
2018-07-17T17:28:29.334Z,3.65
2018-07-17T17:30:58.093Z,4.83
2018-07-17T17:33:26.878Z,4.55
2018-07-17T17:35:56.210Z,3.85
2018-07-17T17:38:25.101Z,4.10
2018-07-17T17:40:53.987Z,3.92
2018-07-17T17:43:23.703Z,5.15
2018-07-17T17:45:52.988Z,1.55
2018-07-17T17:48:21.972Z,1.55
2018-07-17T17:50:51.107Z,6.47
2018-07-17T17:53:20.482Z,2.80
2018-07-17T17:55:49.480Z,1.32
2018-07-17T17:58:18.883Z,4.35
2018-07-17T18:00:47.955Z,2.80
2018-07-17T18:03:16.867Z,2.02
2018-07-17T18:05:46.086Z,1.70
2018-07-17T18:08:14.974Z,1.62
2018-07-17T18:10:43.683Z,14.05
2018-07-17T18:13:12.967Z,2.80
2018-07-17T18:15:42.341Z,2.77
2018-07-17T18:18:11.351Z,5.40
2018-07-17T18:20:40.581Z,2.12
2018-07-17T18:23:09.956Z,1.92
2018-07-17T18:25:38.906Z,4.90
2018-07-17T18:28:08.337Z,5.83
2018-07-17T18:30:37.523Z,3.50
2018-07-17T18:33:07.387Z,4.58
2018-07-17T18:35:37.487Z,4.05
2018-07-17T18:38:07.716Z,2.83
2018-07-17T18:40:36.960Z,9.63
2018-07-17T18:43:05.978Z,4.25
2018-07-17T18:45:35.007Z,2.80
2018-07-17T18:48:04.584Z,3.77
2018-07-17T18:50:33.464Z,3.50
2018-07-17T18:53:03.204Z,3.87
2018-07-17T18:55:32.615Z,3.60
2018-07-17T18:58:03.008Z,3.33
2018-07-17T19:00:32.072Z,3.70
2018-07-17T19:03:01.349Z,3.42
2018-07-17T19:05:30.182Z,5.53
2018-07-17T19:07:59.318Z,5.53
2018-07-17T19:10:28.226Z,4.40
2018-07-17T19:12:57.219Z,6.37
2018-07-17T19:15:26.211Z,6.72
2018-07-17T19:17:55.697Z,3.95
2018-07-17T19:20:24.694Z,8.98
2018-07-17T19:22:53.381Z,7.17
2018-07-17T19:25:22.306Z,3.55
2018-07-17T19:27:52.520Z,4.28
2018-07-17T19:30:21.247Z,3.92
2018-07-17T19:32:50.475Z,3.52
2018-07-17T19:35:19.571Z,3.05
2018-07-17T19:37:49.004Z,3.52
2018-07-17T19:40:18.242Z,4.40
2018-07-17T19:42:47.086Z,4.45
2018-07-17T19:45:15.954Z,4.35
2018-07-17T19:47:45.428Z,5.75
2018-07-17T19:50:14.491Z,6.22
2018-07-17T19:52:43.207Z,4.45
2018-07-17T19:55:12.416Z,4.95
2018-07-17T19:57:41.540Z,5.17
2018-07-17T20:00:10.500Z,8.95
2018-07-17T20:02:39.686Z,7.60
2018-07-17T20:05:08.664Z,3.83
2018-07-17T20:07:37.762Z,8.30
2018-07-17T20:10:06.790Z,10.68
2018-07-17T20:12:35.690Z,2.60
2018-07-17T20:15:04.867Z,4.33
2018-07-17T20:17:34.079Z,4.33
2018-07-17T20:20:03.664Z,3.00
2018-07-17T20:22:32.961Z,4.78
2018-07-17T20:25:02.175Z,2.30
2018-07-17T20:27:31.329Z,4.05
2018-07-17T20:30:00.567Z,4.10
2018-07-17T20:32:30.219Z,3.45
2018-07-17T20:34:59.248Z,8.13
2018-07-17T20:37:28.479Z,4.60
2018-07-17T20:39:57.565Z,5.12
2018-07-17T20:42:26.545Z,5.90
2018-07-17T20:44:55.410Z,7.22
2018-07-17T20:47:25.202Z,7.87
2018-07-17T20:49:54.346Z,12.93
2018-07-17T20:52:23.412Z,10.45
2018-07-17T20:54:53.070Z,12.60
2018-07-17T20:57:22.130Z,13.45
2018-07-17T20:59:51.135Z,15.72
2018-07-17T21:02:20.567Z,17.40
2018-07-17T21:04:49.747Z,17.17
2018-07-17T21:07:18.643Z,16.70
2018-07-17T21:09:47.868Z,15.88
2018-07-17T21:12:16.640Z,15.38
2018-07-17T21:14:45.410Z,16.80
2018-07-17T21:17:15.404Z,16.93
2018-07-17T21:19:44.846Z,17.12
2018-07-17T21:22:13.736Z,17.27
2018-07-17T21:24:43.059Z,17.37
2018-07-17T21:27:11.986Z,18.17
2018-07-17T21:29:40.766Z,18.85
2018-07-17T21:32:10.215Z,17.12
2018-07-17T21:34:39.266Z,17.45
2018-07-17T21:37:08.052Z,16.80
2018-07-17T21:39:37.139Z,15.95
2018-07-17T21:42:06.595Z,16.27
2018-07-17T21:44:35.409Z,16.87
2018-07-17T21:47:04.411Z,16.12
2018-07-17T21:49:33.492Z,16.12
2018-07-17T21:52:02.569Z,17.27
2018-07-17T21:54:31.796Z,16.42
2018-07-17T21:57:00.697Z,17.48
2018-07-17T21:59:29.475Z,16.82
2018-07-17T22:01:58.863Z,17.62
2018-07-17T22:04:27.690Z,18.05
2018-07-17T22:06:56.533Z,18.80
2018-07-17T22:09:25.759Z,20.27
2018-07-17T22:11:54.658Z,18.85
2018-07-17T22:14:24.243Z,20.15
2018-07-17T22:16:53.179Z,20.00
2018-07-17T22:19:22.048Z,20.45
2018-07-17T22:21:51.085Z,19.62
2018-07-17T22:24:20.156Z,19.98
2018-07-17T22:26:49.337Z,21.73
2018-07-17T22:29:18.219Z,22.75
2018-07-17T22:31:47.960Z,21.00
2018-07-17T22:34:17.120Z,22.27
2018-07-17T22:36:45.914Z,22.55
2018-07-17T22:39:15.021Z,22.98
2018-07-17T22:41:44.020Z,23.00
2018-07-17T22:44:12.897Z,22.55
2018-07-17T22:46:42.227Z,23.12
2018-07-17T22:49:14.571Z,24.25
2018-07-17T22:51:43.590Z,24.30
2018-07-17T22:54:12.360Z,23.52
2018-07-17T22:56:41.362Z,23.92
2018-07-17T22:59:10.425Z,23.87
2018-07-17T23:01:39.464Z,25.62
2018-07-17T23:04:08.443Z,24.50
2018-07-17T23:06:37.878Z,25.08
2018-07-17T23:09:09.188Z,24.80
2018-07-17T23:11:39.054Z,25.82
2018-07-17T23:14:08.183Z,24.27
2018-07-17T23:16:37.014Z,26.27
2018-07-17T23:19:06.231Z,25.37
2018-07-17T23:21:35.200Z,25.55
2018-07-17T23:24:04.294Z,26.02
2018-07-17T23:26:33.667Z,25.15
2018-07-17T23:29:02.567Z,26.97
2018-07-17T23:31:32.103Z,26.95
2018-07-17T23:34:01.367Z,27.65
2018-07-17T23:36:30.291Z,27.32
2018-07-17T23:38:59.156Z,25.90
2018-07-17T23:41:28.819Z,25.88
2018-07-17T23:43:57.624Z,26.07
2018-07-17T23:46:26.601Z,25.02
2018-07-17T23:48:55.903Z,25.82
2018-07-17T23:51:24.956Z,25.72
2018-07-17T23:53:53.978Z,25.50
2018-07-17T23:56:23.399Z,25.45
2018-07-17T23:58:52.983Z,25.35
